Time;durP1;ratioP1;P1;durP2;ratioP2;P2;SDS_P1;SDS_P2;PMS_P1;PMS_P2;Temp;Humidity;BMP_temperature;BMP_pressure;BME280_temperature;BME280_humidity;BME280_pressure;Samples;Min_cycle;Max_cycle;Signal;HPM_P1;HPM_P2
2023/07/14 00:01:55;;;;;;;5.10;2.55;;;;;;;27.48;54.80;99369.19;5048289;28;20371;-83
2023/07/14 00:04:32;;;;;;;8.75;3.08;;;;;;;27.52;55.17;99362.50;5052922;28;20116;-84
2023/07/14 00:06:57;;;;;;;6.70;2.28;;;;;;;27.61;55.16;99377.91;5053533;28;20099;-84
2023/07/14 00:09:31;;;;;;;8.63;2.30;;;;;;;27.66;55.36;99372.94;5051477;28;20383;-84
2023/07/14 00:12:00;;;;;;;4.88;2.92;;;;;;;27.25;56.48;99331.50;5051866;28;20033;-84
2023/07/14 00:14:25;;;;;;;3.90;2.72;;;;;;;27.57;56.36;99381.88;5053079;28;20132;-83
2023/07/14 00:16:52;;;;;;;7.40;2.92;;;;;;;27.29;56.34;99368.13;5052435;28;20135;-84
2023/07/14 00:19:20;;;;;;;5.85;2.83;;;;;;;27.37;55.61;99367.44;5052943;28;20087;-84
2023/07/14 00:21:47;;;;;;;4.72;3.22;;;;;;;27.58;56.16;99391.75;5050651;28;20044;-83
2023/07/14 00:24:15;;;;;;;5.20;3.20;;;;;;;27.26;56.82;99368.38;5052836;28;20025;-84
2023/07/14 00:26:42;;;;;;;5.22;2.50;;;;;;;27.36;56.60;99384.72;5052286;28;20036;-84
2023/07/14 00:29:36;;;;;;;11.45;3.47;;;;;;;27.25;56.20;99364.00;5052646;28;20060;-84
2023/07/14 00:32:09;;;;;;;6.80;2.75;;;;;;;27.02;56.02;99338.09;5050516;28;20048;-84
2023/07/14 00:34:34;;;;;;;9.77;5.53;;;;;;;27.06;55.13;99367.47;5052738;28;20056;-86
2023/07/14 00:37:00;;;;;;;3.58;2.00;;;;;;;27.18;52.51;99340.31;5052439;28;20518;-84
2023/07/14 00:39:26;;;;;;;4.35;3.17;;;;;;;27.39;55.09;99370.03;5051389;28;20355;-84
2023/07/14 00:41:53;;;;;;;24.92;4.30;;;;;;;27.30;55.77;99352.75;5037881;28;20477;-88
2023/07/14 00:44:18;;;;;;;9.65;3.50;;;;;;;27.50;56.13;99359.09;5067898;28;20099;-84
2023/07/14 00:46:45;;;;;;;6.50;2.95;;;;;;;27.42;56.27;99324.59;5052402;28;20032;-84
2023/07/14 00:49:42;;;;;;;6.38;2.95;;;;;;;27.64;56.13;99352.41;5052458;28;20078;-84
2023/07/14 00:52:31;;;;;;;7.72;4.10;;;;;;;27.61;55.40;99331.88;5029692;28;20492;-84
2023/07/14 00:54:57;;;;;;;7.22;2.53;;;;;;;27.82;55.57;99356.13;5015012;28;20128;-83
2023/07/14 00:57:26;;;;;;;10.02;3.45;;;;;;;27.71;55.91;99345.41;5030379;28;20044;-84
2023/07/14 00:59:56;;;;;;;7.13;3.38;;;;;;;27.75;56.29;99354.97;5030410;28;20037;-84
2023/07/14 01:02:23;;;;;;;6.38;3.70;;;;;;;27.57;56.53;99351.25;5029860;28;20511;-84
2023/07/14 01:05:06;;;;;;;4.00;2.55;;;;;;;27.43;56.67;99320.00;5029310;28;20589;-84
2023/07/14 01:07:39;;;;;;;5.63;2.50;;;;;;;27.65;56.48;99336.00;5030201;28;20422;-84
2023/07/14 01:10:09;;;;;;;5.30;2.88;;;;;;;27.88;56.45;99360.09;5029269;28;20609;-85
2023/07/14 01:12:38;;;;;;;3.08;2.38;;;;;;;27.63;56.69;99362.38;5029726;28;20057;-84
2023/07/14 01:15:06;;;;;;;5.65;3.40;;;;;;;27.56;57.06;99366.66;5028839;28;20488;-84
2023/07/14 01:17:33;;;;;;;5.10;2.47;;;;;;;27.22;57.77;99364.25;5029597;28;20060;-86
2023/07/14 01:20:01;;;;;;;5.78;3.38;;;;;;;27.09;57.58;99323.88;5026091;28;20128;-84
2023/07/14 01:22:52;;;;;;;14.07;3.17;;;;;;;27.36;57.61;99379.31;5028706;28;20072;-83
2023/07/14 01:25:20;;;;;;;5.35;2.33;;;;;;;27.51;57.14;99383.31;5011356;28;20388;-84
2023/07/14 01:27:46;;;;;;;13.23;3.83;;;;;;;27.39;57.75;99345.66;5032985;28;20045;-84
2023/07/14 01:30:13;;;;;;;5.45;2.33;;;;;;;27.21;58.29;99335.47;5051627;28;20035;-84
2023/07/14 01:32:44;;;;;;;7.32;4.25;;;;;;;27.34;58.20;99373.16;5051641;28;20039;-84
2023/07/14 01:35:10;;;;;;;13.23;4.53;;;;;;;27.00;58.77;99350.94;5050935;28;20124;-84
2023/07/14 01:37:39;;;;;;;6.20;3.47;;;;;;;26.63;59.39;99309.88;5051409;28;20108;-83
2023/07/14 01:40:12;;;;;;;7.75;4.00;;;;;;;26.43;59.95;99318.88;5066392;28;20082;-83
2023/07/14 01:43:09;;;;;;;8.32;3.85;;;;;;;26.67;60.65;99372.72;5048803;28;20024;-85
2023/07/14 01:45:44;;;;;;;10.50;5.45;;;;;;;26.62;60.65;99366.81;5029440;28;20069;-84
2023/07/14 01:48:16;;;;;;;15.48;3.50;;;;;;;26.41;60.91;99335.22;5028594;28;20044;-84
2023/07/14 01:51:11;;;;;;;7.82;4.60;;;;;;;26.58;60.69;99393.25;5028292;28;20195;-84
2023/07/14 01:53:48;;;;;;;3.67;2.85;;;;;;;26.19;61.07;99328.13;5013649;28;20095;-84
2023/07/14 01:56:18;;;;;;;8.80;3.83;;;;;;;26.49;60.69;99355.34;5028255;28;20049;-83
2023/07/14 01:58:56;;;;;;;6.45;4.50;;;;;;;26.27;61.12;99343.69;5011861;28;20412;-84
2023/07/14 02:01:23;;;;;;;6.45;4.38;;;;;;;26.48;61.11;99376.13;5029044;28;20060;-83
2023/07/14 02:03:52;;;;;;;8.43;4.32;;;;;;;26.54;61.31;99401.78;5028036;28;20056;-84
2023/07/14 02:06:17;;;;;;;10.45;3.47;;;;;;;26.35;61.51;99389.84;5009843;28;20045;-84
2023/07/14 02:08:46;;;;;;;5.63;2.72;;;;;;;26.33;61.39;99388.28;5019818;28;20129;-84
2023/07/14 02:11:20;;;;;;;5.95;3.85;;;;;;;26.34;61.31;99388.13;5014239;28;20622;-84
2023/07/14 02:13:46;;;;;;;5.32;2.88;;;;;;;26.21;62.02;99391.03;5028563;28;20060;-83
2023/07/14 02:16:14;;;;;;;5.88;3.03;;;;;;;26.14;62.58;99380.88;5011973;28;20037;-83
2023/07/14 02:18:41;;;;;;;7.30;4.00;;;;;;;26.14;63.19;99397.09;5028160;28;20041;-82
2023/07/14 02:21:08;;;;;;;5.47;3.75;;;;;;;26.00;62.83;99355.03;5032546;28;20073;-83
2023/07/14 02:23:33;;;;;;;7.10;3.22;;;;;;;26.26;62.94;99391.50;5050487;28;20033;-83
2023/07/14 02:26:28;;;;;;;6.30;3.78;;;;;;;26.35;62.93;99414.16;5050297;28;20037;-83
2023/07/14 02:28:56;;;;;;;5.60;3.67;;;;;;;25.95;63.61;99373.41;5027974;28;20041;-84
2023/07/14 02:31:38;;;;;;;3.40;2.80;;;;;;;26.03;63.11;99368.28;5028955;28;20107;-84
2023/07/14 02:34:04;;;;;;;10.63;5.97;;;;;;;25.86;63.99;99359.72;5027761;28;20146;-84
2023/07/14 02:36:37;;;;;;;9.32;3.60;;;;;;;26.01;63.69;99384.63;5027872;28;20041;-84
2023/07/14 02:39:04;;;;;;;17.30;4.18;;;;;;;25.81;64.13;99375.47;5027315;28;20051;-84
2023/07/14 02:41:36;;;;;;;4.43;2.92;;;;;;;25.43;64.48;99322.78;5027060;28;20615;-84
2023/07/14 02:44:04;;;;;;;3.92;2.53;;;;;;;25.72;64.74;99368.97;5028072;28;20045;-84
2023/07/14 02:46:51;;;;;;;11.27;3.33;;;;;;;25.69;64.53;99362.97;5028185;28;20053;-83
2023/07/14 02:49:16;;;;;;;4.82;3.35;;;;;;;25.53;65.54;99368.78;5027783;28;20128;-83
2023/07/14 02:51:42;;;;;;;11.98;3.55;;;;;;;25.12;66.25;99330.66;5026698;28;20124;-86
2023/07/14 02:54:08;;;;;;;5.50;3.50;;;;;;;25.52;66.27;99408.44;5027789;28;20487;-84
2023/07/14 02:56:33;;;;;;;7.03;3.65;;;;;;;25.46;65.83;99394.59;5028270;28;20112;-84
2023/07/14 02:59:00;;;;;;;7.65;4.60;;;;;;;25.53;65.76;99417.38;5027795;28;20132;-83
2023/07/14 03:01:27;;;;;;;6.15;2.95;;;;;;;25.58;65.73;99409.78;5027238;28;20029;-83
2023/07/14 03:03:53;;;;;;;5.13;3.17;;;;;;;25.61;65.80;99398.72;5027141;28;20033;-83
2023/07/14 03:06:20;;;;;;;6.50;3.28;;;;;;;25.68;65.69;99410.72;5048229;28;20497;-84
2023/07/14 03:08:46;;;;;;;4.68;3.05;;;;;;;25.57;66.04;99426.09;5050199;28;20113;-84
2023/07/14 03:11:11;;;;;;;6.20;3.50;;;;;;;25.20;67.10;99400.22;5049795;28;20059;-85
2023/07/14 03:13:37;;;;;;;8.20;3.28;;;;;;;25.73;66.34;99438.22;5048282;28;20041;-84
2023/07/14 03:16:03;;;;;;;4.70;3.53;;;;;;;25.63;66.17;99410.25;5048785;28;20457;-84
2023/07/14 03:18:29;;;;;;;5.25;3.28;;;;;;;25.70;66.73;99411.47;5049315;28;20055;-82
2023/07/14 03:21:01;;;;;;;5.25;3.42;;;;;;;25.51;66.58;99397.75;5050112;28;20486;-81
2023/07/14 03:23:27;;;;;;;4.05;3.00;;;;;;;25.52;66.71;99423.78;5064525;28;20025;-81
2023/07/14 03:25:54;;;;;;;11.40;5.30;;;;;;;25.36;66.64;99394.44;5049280;28;20037;-81
2023/07/14 03:28:19;;;;;;;8.98;3.38;;;;;;;25.44;65.93;99394.72;5049923;28;20037;-83
2023/07/14 03:30:44;;;;;;;5.75;4.75;;;;;;;25.58;65.73;99433.19;5049792;28;20022;-82
2023/07/14 03:33:10;;;;;;;11.20;3.67;;;;;;;25.47;66.08;99442.19;5049898;28;20034;-81
2023/07/14 03:35:35;;;;;;;13.82;4.88;;;;;;;25.61;66.32;99474.34;5050117;28;20028;-82
2023/07/14 03:38:01;;;;;;;15.02;4.63;;;;;;;25.64;65.94;99471.38;5049165;28;20037;-82
2023/07/14 03:40:27;;;;;;;6.57;3.58;;;;;;;25.67;65.97;99463.03;5049137;28;20033;-81
2023/07/14 03:42:54;;;;;;;4.68;2.90;;;;;;;25.79;66.04;99493.56;5046106;28;20489;-82
2023/07/14 03:45:20;;;;;;;7.20;4.43;;;;;;;25.85;64.87;99505.72;5049466;28;20514;-82
2023/07/14 03:47:45;;;;;;;6.60;3.88;;;;;;;25.63;64.84;99466.13;5049801;28;20029;-82
2023/07/14 03:50:13;;;;;;;7.72;3.63;;;;;;;25.60;64.20;99466.38;5048861;28;20079;-82
2023/07/14 03:52:41;;;;;;;7.38;4.78;;;;;;;25.87;63.58;99522.66;5047680;28;20061;-82
2023/07/14 03:55:07;;;;;;;7.65;3.67;;;;;;;25.94;63.59;99540.09;5029442;28;20064;-82
2023/07/14 03:57:35;;;;;;;8.80;4.05;;;;;;;25.73;64.09;99534.59;5043259;28;20033;-83
2023/07/14 04:00:05;;;;;;;4.18;2.78;;;;;;;25.83;64.02;99549.06;5049631;28;20496;-81
2023/07/14 04:02:31;;;;;;;6.75;4.18;;;;;;;25.56;64.91;99546.75;5048779;28;20033;-81
2023/07/14 04:04:57;;;;;;;7.53;3.25;;;;;;;25.59;64.66;99546.50;5045294;28;20047;-81
2023/07/14 04:07:23;;;;;;;8.52;3.30;;;;;;;25.74;64.33;99542.56;5038681;28;20028;-82
2023/07/14 04:09:48;;;;;;;7.00;4.03;;;;;;;25.79;64.02;99525.13;5037744;28;20491;-81
2023/07/14 04:12:13;;;;;;;9.90;4.07;;;;;;;25.90;63.70;99541.31;5043117;28;20041;-80
2023/07/14 04:14:39;;;;;;;8.70;3.72;;;;;;;25.77;64.77;99544.16;5050499;28;20032;-81
2023/07/14 04:17:04;;;;;;;6.30;3.40;;;;;;;26.19;64.31;99570.53;5047166;28;20036;-81
2023/07/14 04:19:30;;;;;;;4.90;2.80;;;;;;;26.45;63.57;99561.13;5052791;28;20068;-81
2023/07/14 04:21:57;;;;;;;7.65;4.32;;;;;;;26.54;63.57;99548.69;5051597;28;20025;-82
2023/07/14 04:24:22;;;;;;;11.27;3.67;;;;;;;26.74;62.86;99559.69;5051753;28;20396;-82
2023/07/14 04:26:47;;;;;;;5.63;3.80;;;;;;;26.83;62.16;99531.00;5052847;28;20032;-82
2023/07/14 04:29:13;;;;;;;13.93;4.65;;;;;;;26.97;62.33;99568.53;5052180;28;20029;-82
2023/07/14 04:31:39;;;;;;;10.43;5.40;;;;;;;27.00;62.58;99560.16;5051340;28;20035;-81
2023/07/14 04:34:05;;;;;;;32.45;6.00;;;;;;;26.99;61.73;99536.81;5052798;28;20113;-81
2023/07/14 04:36:30;;;;;;;30.33;4.90;;;;;;;27.15;61.02;99541.75;5051984;28;20056;-80
2023/07/14 04:39:07;;;;;;;10.50;3.97;;;;;;;27.18;61.76;99543.34;5051410;28;20487;-81
2023/07/14 04:41:34;;;;;;;19.88;5.60;;;;;;;27.21;61.75;99538.50;5050895;28;20039;-81
2023/07/14 04:44:08;;;;;;;6.78;4.40;;;;;;;27.33;60.16;99571.81;5047222;28;20087;-81
2023/07/14 04:46:34;;;;;;;5.63;3.90;;;;;;;27.20;60.03;99535.94;5044571;28;20041;-81
2023/07/14 04:48:59;;;;;;;5.55;4.45;;;;;;;27.44;59.46;99546.50;5044408;28;20043;-81
2023/07/14 04:51:25;;;;;;;11.93;5.03;;;;;;;27.52;58.96;99554.81;5044189;28;20048;-80
2023/07/14 04:53:50;;;;;;;9.65;3.90;;;;;;;27.59;58.46;99539.75;5049675;28;20053;-80
2023/07/14 04:56:15;;;;;;;3.90;2.53;;;;;;;27.59;58.04;99541.56;5043573;28;20060;-80
2023/07/14 04:58:41;;;;;;;7.88;3.75;;;;;;;27.87;58.03;99553.53;5046059;28;20056;-81
2023/07/14 05:01:06;;;;;;;14.65;3.28;;;;;;;27.77;58.02;99550.78;5044238;28;20118;-79
2023/07/14 05:03:32;;;;;;;10.80;3.65;;;;;;;27.78;56.85;99547.09;5045737;28;20055;-83
2023/07/14 05:05:57;;;;;;;13.35;4.03;;;;;;;27.70;57.05;99509.00;5045647;28;20103;-80
2023/07/14 05:08:23;;;;;;;5.93;3.70;;;;;;;28.06;55.33;99531.06;5041825;28;20525;-81
2023/07/14 05:10:49;;;;;;;8.13;4.82;;;;;;;28.18;54.79;99504.72;5039256;28;20036;-83
2023/07/14 05:13:14;;;;;;;10.20;4.55;;;;;;;28.35;54.59;99512.13;5042791;28;20518;-87
2023/07/14 05:15:45;;;;;;;5.30;3.97;;;;;;;28.64;54.58;99543.88;5043902;28;20041;-81
2023/07/14 05:18:11;;;;;;;10.13;4.75;;;;;;;28.61;53.95;99519.75;5046012;28;20025;-80
2023/07/14 05:20:36;;;;;;;10.57;4.75;;;;;;;28.82;54.02;99506.00;5042426;28;20564;-81
2023/07/14 05:23:03;;;;;;;6.57;3.28;;;;;;;28.72;54.05;99519.59;5043778;28;20572;-82
2023/07/14 05:25:29;;;;;;;9.77;4.65;;;;;;;28.83;54.13;99548.44;5043751;28;20098;-81
2023/07/14 05:27:54;;;;;;;18.85;3.47;;;;;;;28.69;54.02;99529.88;5042627;28;20126;-81
2023/07/14 05:30:21;;;;;;;7.57;4.07;;;;;;;29.19;51.92;99536.94;5042541;28;20060;-80
2023/07/14 05:32:47;;;;;;;9.60;3.28;;;;;;;29.75;51.59;99541.50;5043196;28;20067;-81
2023/07/14 05:35:14;;;;;;;11.43;4.60;;;;;;;30.00;50.32;99547.28;5045768;28;20029;-81
2023/07/14 05:37:41;;;;;;;8.63;3.65;;;;;;;30.18;49.76;99545.44;5042935;28;20108;-84
2023/07/14 05:40:10;;;;;;;13.43;4.28;;;;;;;30.53;47.97;99554.66;5060712;28;20450;-81
2023/07/14 05:42:36;;;;;;;13.32;2.53;;;;;;;30.62;47.56;99560.19;5044044;28;21155;-81
2023/07/14 05:45:03;;;;;;;5.45;3.55;;;;;;;30.66;48.99;99556.13;5044100;28;21072;-80
2023/07/14 05:47:28;;;;;;;9.60;4.18;;;;;;;30.52;47.73;99536.66;5040669;28;20067;-81
2023/07/14 05:49:54;;;;;;;7.68;4.03;;;;;;;30.20;49.44;99541.69;5042612;28;20372;-83
2023/07/14 05:52:19;;;;;;;8.88;4.72;;;;;;;30.43;50.35;99551.19;5043277;28;20406;-81
2023/07/14 05:54:47;;;;;;;5.55;3.85;;;;;;;30.69;51.29;99564.00;5036720;28;20028;-82
2023/07/14 05:57:12;;;;;;;6.63;3.00;;;;;;;30.75;52.43;99563.38;5042656;28;20040;-82
2023/07/14 05:59:38;;;;;;;13.68;4.85;;;;;;;30.40;52.20;99532.44;5041759;28;20045;-84
2023/07/14 06:02:05;;;;;;;5.78;3.78;;;;;;;30.37;52.04;99524.56;5042336;28;20104;-83
2023/07/14 06:04:36;;;;;;;10.38;3.88;;;;;;;30.69;50.75;99542.22;5050526;28;20683;-83
2023/07/14 06:07:03;;;;;;;6.40;4.00;;;;;;;30.75;50.80;99544.31;5039578;28;20029;-82
2023/07/14 06:09:34;;;;;;;6.60;3.42;;;;;;;30.81;51.57;99565.47;5049578;28;20040;-83
2023/07/14 06:12:00;;;;;;;14.13;4.45;;;;;;;30.97;50.76;99537.56;5047757;28;20027;-82
2023/07/14 06:14:26;;;;;;;5.95;3.55;;;;;;;31.51;50.20;99555.59;5062408;28;20396;-82
2023/07/14 06:16:53;;;;;;;4.72;3.08;;;;;;;31.65;49.44;99546.00;5050085;28;20040;-82
2023/07/14 06:19:19;;;;;;;4.13;3.25;;;;;;;31.98;49.16;99532.50;5050234;28;20033;-82
2023/07/14 06:21:45;;;;;;;4.88;3.35;;;;;;;32.05;47.50;99552.66;5049742;28;20082;-81
2023/07/14 06:24:10;;;;;;;6.40;4.47;;;;;;;31.98;46.67;99547.00;5050910;28;20060;-82
2023/07/14 06:26:36;;;;;;;8.70;3.10;;;;;;;32.30;46.18;99561.78;5047727;28;20032;-82
2023/07/14 06:29:01;;;;;;;5.32;3.00;;;;;;;32.22;45.94;99543.50;5044967;28;21896;-82
2023/07/14 06:31:26;;;;;;;3.78;2.30;;;;;;;32.51;46.56;99519.53;5043794;28;20033;-80
2023/07/14 06:33:52;;;;;;;6.03;3.72;;;;;;;32.86;43.96;99534.75;5048497;28;20041;-81
2023/07/14 06:36:17;;;;;;;5.93;2.67;;;;;;;33.39;43.00;99539.84;5042208;28;20029;-81
2023/07/14 06:38:43;;;;;;;5.00;3.53;;;;;;;33.36;41.84;99530.94;5038095;28;20054;-82
2023/07/14 06:41:08;;;;;;;10.93;3.70;;;;;;;33.61;40.94;99550.00;5040313;28;20124;-82
2023/07/14 06:43:34;;;;;;;3.50;2.50;;;;;;;33.92;39.23;99564.81;5041912;28;20052;-82
2023/07/14 06:46:00;;;;;;;5.00;2.90;;;;;;;34.22;38.89;99542.09;5041778;28;20399;-84
2023/07/14 06:48:26;;;;;;;4.93;2.90;;;;;;;34.42;37.59;99558.94;5042528;28;20028;-83
2023/07/14 06:50:53;;;;;;;4.60;3.08;;;;;;;34.58;35.12;99574.38;5040019;28;20055;-83
2023/07/14 06:53:18;;;;;;;5.97;2.92;;;;;;;34.61;34.46;99571.28;5040806;28;20036;-82
2023/07/14 06:55:45;;;;;;;5.70;3.50;;;;;;;34.43;34.84;99543.34;5044801;28;20536;-82
2023/07/14 06:58:11;;;;;;;5.43;3.40;;;;;;;34.61;34.02;99568.53;5040702;28;20018;-82
2023/07/14 07:00:36;;;;;;;9.48;3.35;;;;;;;34.50;33.47;99579.91;5040222;28;20032;-82
2023/07/14 07:03:03;;;;;;;8.50;3.42;;;;;;;34.55;33.95;99544.63;5040177;28;20036;-83
2023/07/14 07:05:30;;;;;;;5.22;2.40;;;;;;;34.77;33.79;99580.44;5039234;28;20530;-82
2023/07/14 07:07:55;;;;;;;3.20;1.77;;;;;;;34.68;33.04;99570.56;5043581;28;20025;-85
2023/07/14 07:10:21;;;;;;;3.42;2.05;;;;;;;34.57;33.96;99571.81;5041199;28;20043;-82
2023/07/14 07:12:47;;;;;;;4.18;2.40;;;;;;;35.06;35.05;99559.66;5042912;28;20124;-82
2023/07/14 07:15:12;;;;;;;15.27;3.78;;;;;;;35.84;35.82;99594.03;5042834;28;20108;-83
2023/07/14 07:17:38;;;;;;;5.30;2.63;;;;;;;35.70;32.50;99570.19;5042771;28;20025;-85
2023/07/14 07:20:08;;;;;;;4.22;2.72;;;;;;;35.53;32.32;99580.47;5039785;28;20040;-84
2023/07/14 07:22:35;;;;;;;5.15;2.75;;;;;;;35.66;33.43;99605.34;5042694;28;20564;-82
2023/07/14 07:25:00;;;;;;;5.57;2.80;;;;;;;35.72;31.92;99587.28;5039893;28;20122;-82
2023/07/14 07:27:26;;;;;;;5.13;3.10;;;;;;;35.66;32.78;99599.00;5041384;28;20029;-85
2023/07/14 07:29:51;;;;;;;8.02;2.70;;;;;;;35.57;31.63;99548.88;5041783;28;20033;-85
2023/07/14 07:32:17;;;;;;;4.82;3.20;;;;;;;36.08;32.59;99572.81;5038487;28;20457;-85
2023/07/14 07:34:43;;;;;;;5.40;2.70;;;;;;;36.38;32.37;99551.66;5039760;28;20029;-85
2023/07/14 07:37:10;;;;;;;6.88;3.97;;;;;;;36.65;31.23;99562.06;5042099;28;20025;-85
2023/07/14 07:39:36;;;;;;;4.75;2.97;;;;;;;36.96;30.86;99578.25;5040237;28;20445;-86
2023/07/14 07:42:02;;;;;;;15.20;2.83;;;;;;;37.37;31.83;99580.31;5041520;28;20143;-85
2023/07/14 07:44:28;;;;;;;16.35;3.78;;;;;;;36.96;31.52;99583.72;5044071;28;20037;-85
2023/07/14 07:46:53;;;;;;;8.93;4.50;;;;;;;37.39;31.47;99571.84;5055156;28;20502;-86
2023/07/14 07:49:19;;;;;;;8.23;2.35;;;;;;;37.47;31.18;99568.09;5057510;28;20033;-84
2023/07/14 07:51:45;;;;;;;7.07;2.53;;;;;;;36.74;32.12;99582.91;5043073;28;20052;-83
2023/07/14 07:54:10;;;;;;;4.57;3.20;;;;;;;36.61;33.83;99589.09;5039171;28;20069;-84
2023/07/14 07:56:36;;;;;;;3.97;2.40;;;;;;;36.77;33.10;99563.28;5045084;28;20040;-84
2023/07/14 07:59:01;;;;;;;5.43;3.33;;;;;;;36.84;31.29;99544.09;5045596;28;20116;-84
2023/07/14 08:01:28;;;;;;;5.80;3.55;;;;;;;37.62;32.97;99579.84;5044009;28;20431;-85
2023/07/14 08:03:53;;;;;;;7.93;3.45;;;;;;;37.32;31.24;99569.03;5044783;28;20033;-84
2023/07/14 08:06:21;;;;;;;4.43;2.38;;;;;;;36.86;30.75;99569.50;5043815;28;20032;-85
2023/07/14 08:08:46;;;;;;;4.68;2.55;;;;;;;36.69;31.68;99552.41;5048156;28;20108;-83
2023/07/14 08:11:13;;;;;;;4.80;2.55;;;;;;;37.21;31.67;99583.31;5042469;28;20144;-84
2023/07/14 08:13:39;;;;;;;6.10;3.08;;;;;;;37.55;30.84;99556.91;5043679;28;20499;-84
2023/07/14 08:16:05;;;;;;;3.53;2.10;;;;;;;37.75;30.51;99560.66;5046353;28;20055;-84
2023/07/14 08:18:31;;;;;;;5.25;2.88;;;;;;;38.12;28.48;99552.16;5046925;28;20124;-86
2023/07/14 08:20:58;;;;;;;6.15;2.58;;;;;;;38.17;29.29;99552.41;5044658;28;20164;-86
2023/07/14 08:23:25;;;;;;;8.98;3.65;;;;;;;38.09;31.46;99552.56;5047344;28;20065;-84
2023/07/14 08:25:59;;;;;;;4.80;2.55;;;;;;;38.30;29.82;99540.59;5047514;28;20033;-84
2023/07/14 08:28:24;;;;;;;6.22;2.00;;;;;;;38.09;29.34;99536.03;5046034;28;20044;-83
2023/07/14 08:30:52;;;;;;;6.75;2.60;;;;;;;37.48;29.11;99556.03;5045588;28;20033;-84
2023/07/14 08:33:25;;;;;;;4.13;1.92;;;;;;;37.60;30.53;99558.03;5043718;28;20032;-85
2023/07/14 08:35:54;;;;;;;5.47;2.28;;;;;;;38.12;31.80;99549.41;5047044;28;20030;-84
2023/07/14 08:38:21;;;;;;;4.57;2.55;;;;;;;38.57;28.17;99546.16;5044844;28;20924;-86
2023/07/14 08:41:04;;;;;;;4.15;2.85;;;;;;;38.55;29.47;99553.78;5060278;28;20033;-83
2023/07/14 08:44:08;;;;;;;11.20;3.53;;;;;;;38.73;28.10;99561.47;5043507;28;20065;-84
2023/07/14 08:46:55;;;;;;;4.43;3.28;;;;;;;38.44;27.37;99556.09;5045097;28;20723;-83
2023/07/14 08:49:22;;;;;;;4.20;2.40;;;;;;;38.54;27.57;99563.94;5038381;28;20037;-84
2023/07/14 08:51:57;;;;;;;9.95;4.05;;;;;;;38.38;27.15;99540.41;5043544;28;20064;-82
2023/07/14 08:54:30;;;;;;;6.35;3.38;;;;;;;38.24;29.17;99520.22;5040569;28;20028;-83
2023/07/14 08:56:56;;;;;;;5.85;2.42;;;;;;;38.53;28.04;99551.25;5041011;28;20029;-85
2023/07/14 08:59:39;;;;;;;5.00;2.33;;;;;;;38.56;27.18;99555.47;5043258;28;20056;-84
2023/07/14 09:02:23;;;;;;;10.30;4.68;;;;;;;38.66;26.36;99545.75;5042481;28;20037;-85
2023/07/14 09:05:17;;;;;;;7.65;3.08;;;;;;;38.96;26.74;99550.88;5042821;28;20041;-86
2023/07/14 09:07:43;;;;;;;3.33;1.90;;;;;;;38.56;27.64;99533.41;5040164;28;20156;-85
2023/07/14 09:10:12;;;;;;;11.40;3.20;;;;;;;39.14;29.43;99546.66;5041877;28;21984;-85
2023/07/14 09:12:55;;;;;;;6.55;2.65;;;;;;;38.76;28.50;99537.09;5043045;28;20100;-85
2023/07/14 09:15:25;;;;;;;7.85;2.42;;;;;;;39.17;26.88;99489.16;5043992;28;20025;-87
2023/07/14 09:18:06;;;;;;;9.48;2.47;;;;;;;39.34;28.30;99514.38;5039043;28;20396;-84
2023/07/14 09:20:53;;;;;;;9.00;3.85;;;;;;;39.27;27.34;99527.34;5043883;28;20195;-85
2023/07/14 09:23:47;;;;;;;6.47;2.03;;;;;;;39.13;25.85;99515.50;5057962;28;20543;-87
2023/07/14 09:26:24;;;;;;;10.32;3.20;;;;;;;39.18;27.71;99503.81;5041341;28;20499;-83
2023/07/14 09:28:51;;;;;;;11.25;3.75;;;;;;;39.46;24.97;99524.78;5041110;28;20043;-85
2023/07/14 09:31:41;;;;;;;3.72;2.35;;;;;;;39.08;24.88;99519.91;5047726;28;20806;-83
2023/07/14 09:34:32;;;;;;;8.60;3.53;;;;;;;39.24;25.49;99511.25;5059233;28;20590;-84
2023/07/14 09:36:58;;;;;;;4.93;2.53;;;;;;;38.85;24.83;99463.31;4979042;28;20078;-84
2023/07/14 09:39:35;;;;;;;4.50;2.95;;;;;;;39.12;26.56;99488.97;4982688;28;20038;-85
2023/07/14 09:42:05;;;;;;;5.68;2.92;;;;;;;38.99;24.48;99491.69;4980793;28;20137;-87
2023/07/14 09:44:31;;;;;;;6.68;3.03;;;;;;;39.80;23.21;99514.50;4974972;28;20659;-86
2023/07/14 09:46:58;;;;;;;3.50;2.47;;;;;;;39.68;25.46;99492.25;4984762;28;20027;-87
2023/07/14 09:49:46;;;;;;;4.15;2.47;;;;;;;40.01;26.42;99516.13;4973369;28;20500;-85
2023/07/14 09:52:23;;;;;;;5.18;3.25;;;;;;;39.42;22.87;99479.34;4981396;28;21894;-85
2023/07/14 09:54:50;;;;;;;4.43;2.88;;;;;;;39.36;25.56;99498.47;4978391;28;20142;-85
2023/07/14 09:57:18;;;;;;;5.88;2.35;;;;;;;39.18;24.69;99482.59;4984166;28;20027;-84
2023/07/14 09:59:53;;;;;;;4.95;2.63;;;;;;;39.24;24.95;99491.06;4982541;28;20030;-87
2023/07/14 10:02:25;;;;;;;6.22;3.22;;;;;;;39.26;24.02;99480.69;4981161;28;20038;-87
2023/07/14 10:04:56;;;;;;;3.83;1.90;;;;;;;39.73;26.75;99490.53;4981391;28;20133;-88
2023/07/14 10:07:24;;;;;;;10.85;2.80;;;;;;;39.78;24.27;99495.41;4978685;28;20054;-84
2023/07/14 10:10:07;;;;;;;4.93;2.75;;;;;;;39.62;22.79;99435.16;4983924;28;20575;-84
2023/07/14 10:12:40;;;;;;;3.60;2.25;;;;;;;39.93;22.25;99484.91;4972241;28;20089;-85
2023/07/14 10:15:26;;;;;;;5.07;2.60;;;;;;;39.87;23.10;99457.34;5037558;28;20063;-86
2023/07/14 10:17:54;;;;;;;8.77;2.88;;;;;;;39.52;22.38;99452.16;5037102;28;20057;-85
2023/07/14 10:20:22;;;;;;;4.15;2.47;;;;;;;39.56;23.70;99478.28;5037026;28;21012;-85
2023/07/14 10:22:55;;;;;;;4.80;3.22;;;;;;;39.66;25.18;99467.63;5040238;28;20518;-86
2023/07/14 10:25:23;;;;;;;7.00;3.35;;;;;;;39.29;23.24;99434.19;5040168;28;20423;-86
2023/07/14 10:28:12;;;;;;;9.55;3.70;;;;;;;39.14;23.74;99461.19;5039268;28;20033;-85
2023/07/14 10:30:44;;;;;;;4.47;2.33;;;;;;;39.82;23.67;99477.31;5043282;28;20399;-85
2023/07/14 10:33:18;;;;;;;4.65;1.88;;;;;;;39.48;23.46;99459.19;5044099;28;20036;-85
2023/07/14 10:35:44;;;;;;;5.75;2.85;;;;;;;39.48;23.13;99437.94;5040588;28;20094;-85
2023/07/14 10:38:19;;;;;;;7.05;2.35;;;;;;;39.84;23.60;99422.75;5040167;28;20494;-85
2023/07/14 10:40:57;;;;;;;5.88;2.78;;;;;;;40.29;23.08;99460.53;5043987;28;20033;-84
2023/07/14 10:43:49;;;;;;;17.38;3.67;;;;;;;40.25;24.03;99454.56;5043958;28;20025;-84
2023/07/14 10:46:23;;;;;;;5.45;2.55;;;;;;;39.98;22.94;99447.50;4998545;28;20100;-85
2023/07/14 10:49:22;;;;;;;5.50;3.13;;;;;;;39.69;22.62;99445.13;4999922;28;20038;-87
2023/07/14 10:51:52;;;;;;;5.32;2.83;;;;;;;39.87;23.40;99432.47;4993588;28;20033;-84
2023/07/14 10:54:23;;;;;;;6.78;3.85;;;;;;;39.64;23.43;99425.63;5001577;28;20038;-85
2023/07/14 10:57:10;;;;;;;6.70;3.00;;;;;;;39.86;25.48;99445.44;5002614;28;20041;-84
2023/07/14 10:59:46;;;;;;;4.07;2.50;;;;;;;40.26;24.08;99442.47;4982189;28;20526;-84
2023/07/14 11:02:34;;;;;;;8.40;3.90;;;;;;;39.44;24.23;99431.19;5001963;28;20040;-84
2023/07/14 11:05:10;;;;;;;8.10;3.03;;;;;;;39.31;23.01;99393.44;5000077;28;20072;-85
2023/07/14 11:07:36;;;;;;;3.22;2.38;;;;;;;39.56;23.76;99412.91;5001771;28;20508;-85
2023/07/14 11:10:12;;;;;;;4.15;2.80;;;;;;;39.68;23.42;99429.59;5000012;28;20132;-85
2023/07/14 11:12:53;;;;;;;4.30;2.28;;;;;;;39.51;24.88;99411.84;5000980;28;20218;-85
2023/07/14 11:15:26;;;;;;;5.68;2.47;;;;;;;40.26;28.16;99417.63;4998259;28;20033;-86
2023/07/14 11:18:07;;;;;;;15.13;2.13;;;;;;;40.14;24.42;99400.06;4984145;28;20053;-84
2023/07/14 11:20:45;;;;;;;5.22;2.83;;;;;;;39.75;24.53;99422.16;4998537;28;20053;-84
2023/07/14 11:23:27;;;;;;;5.55;2.58;;;;;;;40.20;23.09;99431.47;5020463;28;20110;-84
2023/07/14 11:26:04;;;;;;;6.32;3.05;;;;;;;40.75;21.73;99415.13;5042009;28;20479;-85
2023/07/14 11:28:38;;;;;;;7.65;2.90;;;;;;;40.70;21.98;99411.31;5041473;28;20028;-85
2023/07/14 11:31:24;;;;;;;9.63;3.78;;;;;;;40.87;22.05;99389.50;5041786;28;20025;-85
2023/07/14 11:34:02;;;;;;;8.02;4.60;;;;;;;40.77;21.49;99414.88;5042148;28;20044;-85
2023/07/14 11:36:52;;;;;;;2.78;1.70;;;;;;;40.80;21.58;99408.91;5040674;28;20530;-86
2023/07/14 11:39:38;;;;;;;6.72;2.10;;;;;;;40.96;22.86;99404.72;5039319;28;20054;-87
2023/07/14 11:42:14;;;;;;;2.63;1.73;;;;;;;40.83;22.66;99371.63;5047493;28;20032;-84
2023/07/14 11:44:40;;;;;;;3.95;2.75;;;;;;;40.79;23.03;99396.97;5041877;28;20462;-85
2023/07/14 11:47:17;;;;;;;6.75;2.80;;;;;;;41.09;21.55;99398.19;5040369;28;20029;-86